Main page
METAR-TAF:

METAR-TAF

Airports :

Balıkesir Airport

Balikesir, Turkey

latitude: 39-37N, longitude: 027-55E, elevation: 101 m

Current weather observation

The report was made 1 hour and 3 minutes ago, at 08:50 UTC
Calm wind
Temperature 8°C
Humidity 87%
Pressure 1022 hPa
Visibility 10 km or more
Scattered clouds at a height of 3500 ft
Broken clouds at a height of 10000 ft

METAR: LTBF 190850Z 00000KT 9999 SCT035 BKN100 08/06 Q1022 NOSIG

Time: 12:53 (09:53 UTC)

Forecast

The report was made 2 hours and 13 minutes ago, at 07:40 UTC
Forecast valid from 19 at 09 UTC to 19 at 18 UTC
Wind 2 kt from variable directions
Visibility 10 km or more
Scattered clouds at a height of 3500 ft
Broken clouds at a height of 10000 ft
Temporary
from 19 at 09 UTC to 19 at 12 UTC
light rain showers

TAF: LTBF 190740Z 1909/1918 VRB02KT 9999 SCT035 BKN100 TEMPO 1909/1912 -SHRA

Weather observations and forecasts of more than 4000 airports (METAR and TAF reports).

The available stations are represented by yellow and red dots on the map.

Hover mouse over dot to see the name of the station.

Then click to see weather observations and forecasts.

To change the map : click on the green buttons with a black cross to zoom in, on the green button with a dash to zoom out, or on the green arrows for adjacent maps.


METAR-TAF: